Time;durP1;ratioP1;P1;durP2;ratioP2;P2;SDS_P1;SDS_P2;PMS_P1;PMS_P2;Temp;Humidity;BMP_temperature;BMP_pressure;BME280_temperature;BME280_humidity;BME280_pressure;Samples;Min_cycle;Max_cycle;Signal;HPM_P1;HPM_P2
2024/04/07 00:01:22;;;;;;;3.95;2.40;;;22.00;74.20;;;;;;4994507;28;20058;-35
2024/04/07 00:03:48;;;;;;;4.15;2.60;;;22.00;74.20;;;;;;4994606;28;20019;-33
2024/04/07 00:06:14;;;;;;;3.58;2.50;;;22.00;74.30;;;;;;4998126;28;20046;-33
2024/04/07 00:08:39;;;;;;;4.07;2.53;;;22.00;74.30;;;;;;5002002;28;20030;-34
2024/04/07 00:11:05;;;;;;;3.25;2.38;;;21.90;74.20;;;;;;4999841;28;20036;-34
2024/04/07 00:13:31;;;;;;;4.30;2.45;;;21.90;74.30;;;;;;4996044;28;20027;-34
2024/04/07 00:15:57;;;;;;;4.32;2.50;;;21.90;74.20;;;;;;4991298;28;20034;-35
2024/04/07 00:18:23;;;;;;;4.63;2.60;;;21.90;74.20;;;;;;5025818;28;20173;-38
2024/04/07 00:21:00;;;;;;;4.50;2.58;;;21.80;74.20;;;;;;5002946;28;20114;-38
2024/04/07 00:23:25;;;;;;;3.67;2.30;;;21.80;74.20;;;;;;4992387;28;20038;-38
2024/04/07 00:25:51;;;;;;;3.53;2.50;;;21.80;74.30;;;;;;4998471;28;20041;-38
2024/04/07 00:28:17;;;;;;;3.22;2.30;;;21.80;74.30;;;;;;4990940;28;20039;-39
2024/04/07 00:30:43;;;;;;;3.63;2.42;;;21.80;74.30;;;;;;5001556;28;20036;-35
2024/04/07 00:33:09;;;;;;;4.53;2.53;;;21.70;74.40;;;;;;4999683;28;20101;-34
2024/04/07 00:35:35;;;;;;;4.45;2.55;;;21.70;74.50;;;;;;4999884;28;20061;-38
2024/04/07 00:38:01;;;;;;;4.88;2.58;;;21.70;74.50;;;;;;4999019;28;20359;-37
2024/04/07 00:40:26;;;;;;;3.75;2.20;;;21.70;74.50;;;;;;4997151;28;20038;-38
2024/04/07 00:42:54;;;;;;;2.83;2.10;;;21.70;74.50;;;;;;4999790;28;20029;-35
2024/04/07 00:45:20;;;;;;;4.00;2.53;;;21.60;74.50;;;;;;5033198;28;20027;-34
2024/04/07 00:47:46;;;;;;;4.32;2.42;;;21.60;74.50;;;;;;4994504;28;20040;-38
2024/04/07 00:56:25;;;;;;;2.92;2.33;;;21.50;74.60;;;;;;4953642;28;20060;-91
2024/04/07 00:58:51;;;;;;;3.28;2.30;;;21.50;74.80;;;;;;4941454;29;20035;-92
2024/04/07 01:01:22;;;;;;;3.58;2.45;;;21.50;74.70;;;;;;4964898;29;20050;-91
2024/04/07 01:03:48;;;;;;;3.88;2.30;;;21.50;74.80;;;;;;4984005;23;20047;-32
2024/04/07 01:06:16;;;;;;;3.33;2.30;;;21.50;74.70;;;;;;4951067;28;20027;-32
2024/04/07 01:08:42;;;;;;;2.85;2.33;;;21.50;74.80;;;;;;4954954;28;20087;-32
2024/04/07 01:11:08;;;;;;;3.42;2.38;;;21.40;74.90;;;;;;4974551;28;20023;-32
2024/04/07 01:13:34;;;;;;;3.28;2.30;;;21.40;74.80;;;;;;4954280;29;20038;-32
2024/04/07 01:16:00;;;;;;;3.60;2.40;;;21.40;74.80;;;;;;4963006;28;20079;-32
2024/04/07 01:18:25;;;;;;;3.72;2.38;;;21.40;74.80;;;;;;4957844;29;20040;-32
2024/04/07 01:20:51;;;;;;;3.60;2.42;;;21.40;74.90;;;;;;4935068;29;20028;-32
2024/04/07 01:23:18;;;;;;;3.50;2.30;;;21.40;74.90;;;;;;4971539;28;20035;-32
2024/04/07 01:25:44;;;;;;;2.95;2.30;;;21.30;74.80;;;;;;4952235;29;20024;-38
2024/04/07 01:28:11;;;;;;;4.25;2.60;;;21.30;74.80;;;;;;4959716;29;20039;-37
2024/04/07 01:30:37;;;;;;;4.35;2.70;;;21.30;74.90;;;;;;4953218;29;20051;-41
2024/04/07 01:33:03;;;;;;;5.80;3.05;;;21.30;74.90;;;;;;4961297;28;20035;-40
2024/04/07 01:35:30;;;;;;;3.85;2.40;;;21.30;74.90;;;;;;4953317;28;20028;-40
2024/04/07 01:37:56;;;;;;;3.30;2.53;;;21.30;74.90;;;;;;4955859;29;20028;-40
2024/04/07 01:40:22;;;;;;;3.30;2.13;;;21.30;74.90;;;;;;4957931;29;20024;-41
2024/04/07 01:42:50;;;;;;;3.67;2.50;;;21.20;74.90;;;;;;4944863;29;20055;-41
2024/04/07 01:45:18;;;;;;;4.95;2.75;;;21.30;75.00;;;;;;4954709;29;20475;-40
2024/04/07 01:47:44;;;;;;;3.42;2.30;;;21.20;74.90;;;;;;4960129;28;20036;-39
2024/04/07 01:50:10;;;;;;;3.60;2.30;;;21.20;74.90;;;;;;4952848;28;20094;-39
2024/04/07 01:52:36;;;;;;;2.90;2.30;;;21.20;74.90;;;;;;4961136;29;21706;-40
2024/04/07 01:55:02;;;;;;;4.32;2.60;;;21.20;74.90;;;;;;4944587;29;20480;-40
2024/04/07 01:57:28;;;;;;;3.22;2.15;;;21.20;74.90;;;;;;4960756;28;20051;-40
2024/04/07 01:59:55;;;;;;;3.17;2.13;;;21.10;74.90;;;;;;4963014;28;20035;-40
2024/04/07 02:02:21;;;;;;;3.85;2.40;;;21.10;74.90;;;;;;4956020;28;20043;-40
2024/04/07 02:04:47;;;;;;;5.32;2.22;;;21.10;74.90;;;;;;4960029;29;20036;-42
2024/04/07 02:07:13;;;;;;;3.63;2.10;;;21.10;74.90;;;;;;4955060;28;20043;-41
2024/04/07 02:09:39;;;;;;;3.15;2.00;;;21.10;74.90;;;;;;4962186;29;20030;-40
2024/04/07 02:12:05;;;;;;;2.80;1.98;;;21.10;74.90;;;;;;4960250;28;20027;-40
2024/04/07 02:14:31;;;;;;;2.65;1.80;;;21.00;74.90;;;;;;4955441;29;20472;-40
2024/04/07 02:16:57;;;;;;;2.53;1.80;;;21.10;74.90;;;;;;4958675;28;20035;-42
2024/04/07 02:19:23;;;;;;;2.53;1.90;;;21.00;75.00;;;;;;4951625;28;20027;-41
2024/04/07 02:21:49;;;;;;;3.40;1.80;;;21.00;74.90;;;;;;4958551;28;20027;-41
2024/04/07 02:24:14;;;;;;;2.08;1.70;;;21.00;74.90;;;;;;4954893;28;20235;-38
2024/04/07 02:26:40;;;;;;;2.30;1.60;;;21.00;75.00;;;;;;4956394;28;20499;-39
2024/04/07 02:29:06;;;;;;;1.90;1.50;;;20.90;75.00;;;;;;4957747;29;20769;-41
2024/04/07 02:31:32;;;;;;;1.88;1.50;;;21.00;75.00;;;;;;4972739;28;20130;-41
2024/04/07 02:33:59;;;;;;;3.22;1.80;;;20.90;75.00;;;;;;4959807;28;20085;-40
2024/04/07 02:36:25;;;;;;;3.25;1.73;;;20.90;75.00;;;;;;4960411;29;20653;-40
2024/04/07 02:38:52;;;;;;;2.75;1.67;;;20.90;75.00;;;;;;4955646;29;20391;-40
2024/04/07 02:41:17;;;;;;;2.33;1.50;;;20.90;75.00;;;;;;4941530;29;20036;-39
2024/04/07 02:43:44;;;;;;;2.88;1.70;;;20.90;75.00;;;;;;4959961;29;20019;-40
2024/04/07 02:49:08;;;;;;;2.65;1.52;;;20.90;75.00;;;;;;4931788;28;20066;-40
2024/04/07 02:51:33;;;;;;;2.90;1.58;;;20.90;75.10;;;;;;4949742;28;20027;-38
2024/04/07 02:53:59;;;;;;;2.33;1.40;;;20.80;75.00;;;;;;4956531;28;20083;-40
2024/04/07 02:56:25;;;;;;;2.38;1.50;;;20.80;75.10;;;;;;4959232;29;20137;-39
2024/04/07 02:58:50;;;;;;;3.03;1.58;;;20.80;75.10;;;;;;4958303;28;20068;-41
2024/04/07 03:01:16;;;;;;;1.92;1.40;;;20.80;75.10;;;;;;4963935;29;20381;-40
2024/04/07 03:03:44;;;;;;;1.73;1.35;;;20.80;75.10;;;;;;4954933;29;20085;-40
2024/04/07 03:06:10;;;;;;;2.30;1.30;;;20.80;75.10;;;;;;4928237;29;20027;-40
2024/04/07 03:08:36;;;;;;;5.32;1.38;;;20.80;75.20;;;;;;4958685;28;20037;-39
2024/04/07 03:11:05;;;;;;;2.58;1.45;;;20.80;75.80;;;;;;4960225;29;20047;-40
2024/04/07 03:13:32;;;;;;;2.95;1.35;;;20.80;75.30;;;;;;4943995;29;20020;-40
2024/04/07 03:15:58;;;;;;;1.85;1.35;;;20.70;75.20;;;;;;4972632;28;20039;-40
2024/04/07 03:18:24;;;;;;;2.42;1.27;;;20.70;75.40;;;;;;4953668;29;20019;-40
2024/04/07 03:20:50;;;;;;;1.70;1.20;;;20.70;75.40;;;;;;4957689;29;20020;-40
2024/04/07 03:23:15;;;;;;;1.85;1.10;;;20.70;75.30;;;;;;4960807;29;20049;-40
2024/04/07 03:25:41;;;;;;;1.70;1.27;;;20.70;75.40;;;;;;4958900;29;20477;-39
2024/04/07 03:28:07;;;;;;;2.05;1.30;;;20.70;75.40;;;;;;4949240;28;20059;-35
2024/04/07 03:30:34;;;;;;;2.70;1.58;;;20.60;75.40;;;;;;4938378;29;20403;-39
2024/04/07 03:33:04;;;;;;;1.50;1.35;;;20.70;75.50;;;;;;4958968;28;20132;-39
2024/04/07 03:35:30;;;;;;;3.42;1.50;;;20.60;75.40;;;;;;4958490;29;20523;-38
2024/04/07 03:37:56;;;;;;;2.63;1.20;;;20.60;75.40;;;;;;4953006;29;20042;-40
2024/04/07 03:40:22;;;;;;;1.35;1.20;;;20.60;75.30;;;;;;4961761;28;20024;-37
2024/04/07 03:42:49;;;;;;;1.92;1.10;;;20.60;75.30;;;;;;4956714;28;20945;-38
2024/04/07 03:45:16;;;;;;;2.55;1.35;;;20.50;75.30;;;;;;4960177;28;20038;-38
2024/04/07 03:47:42;;;;;;;1.20;1.10;;;20.60;75.30;;;;;;4956748;29;20031;-40
2024/04/07 03:50:07;;;;;;;1.42;1.23;;;20.60;75.30;;;;;;4957850;28;20137;-40
2024/04/07 03:52:34;;;;;;;1.17;1.08;;;20.50;75.30;;;;;;4943647;29;20114;-40
2024/04/07 03:55:01;;;;;;;1.08;1.00;;;20.50;75.30;;;;;;4956629;29;20035;-39
2024/04/07 03:57:27;;;;;;;1.27;1.05;;;20.50;75.40;;;;;;4957568;28;20027;-38
2024/04/07 03:59:54;;;;;;;1.83;1.00;;;20.50;75.50;;;;;;4949734;29;20015;-39
2024/04/07 04:02:24;;;;;;;2.05;1.10;;;20.50;75.40;;;;;;4958146;29;20130;-41
2024/04/07 04:05:00;;;;;;;1.50;1.02;;;20.50;75.40;;;;;;4973565;28;20044;-39
2024/04/07 04:07:28;;;;;;;1.70;1.10;;;20.50;75.40;;;;;;4956133;29;20035;-39
2024/04/07 04:09:55;;;;;;;2.65;1.05;;;20.50;75.40;;;;;;4934185;28;20024;-39
2024/04/07 04:12:24;;;;;;;1.85;1.10;;;20.50;75.40;;;;;;4958644;29;20028;-39
2024/04/07 04:14:51;;;;;;;1.92;1.45;;;20.40;75.30;;;;;;4939578;29;20023;-38
2024/04/07 04:17:17;;;;;;;1.73;1.15;;;20.40;75.40;;;;;;4951705;29;20169;-39
2024/04/07 04:19:43;;;;;;;0.80;0.80;;;20.40;75.30;;;;;;4955180;29;20059;-39
2024/04/07 04:22:09;;;;;;;1.08;0.98;;;20.40;75.30;;;;;;4954223;29;20015;-40
2024/04/07 04:24:35;;;;;;;1.50;1.00;;;20.40;75.30;;;;;;4959114;28;20027;-40
2024/04/07 04:27:02;;;;;;;0.90;0.90;;;20.40;75.30;;;;;;4957985;28;20094;-39
2024/04/07 04:29:29;;;;;;;0.90;0.90;;;20.30;75.30;;;;;;4957889;29;20031;-39
2024/04/07 04:31:58;;;;;;;0.80;0.80;;;20.30;75.30;;;;;;4940424;29;20534;-38
2024/04/07 04:34:24;;;;;;;1.90;1.17;;;20.30;75.30;;;;;;4969065;28;20027;-41
2024/04/07 04:36:51;;;;;;;0.85;0.85;;;20.30;75.30;;;;;;4973818;28;20429;-41
2024/04/07 04:39:17;;;;;;;1.52;0.82;;;20.30;75.30;;;;;;4957021;29;20051;-40
2024/04/07 04:41:45;;;;;;;1.05;0.95;;;20.30;75.30;;;;;;4954823;28;20035;-40
2024/04/07 04:44:12;;;;;;;0.93;0.90;;;20.30;75.30;;;;;;4956433;28;20048;-39
2024/04/07 04:46:42;;;;;;;1.65;0.95;;;20.20;75.30;;;;;;4958544;29;20043;-40
2024/04/07 04:49:12;;;;;;;0.77;0.77;;;20.20;75.20;;;;;;4964006;28;20035;-40
2024/04/07 04:51:38;;;;;;;1.85;0.85;;;20.20;75.20;;;;;;4944492;29;20038;-40
2024/04/07 04:54:04;;;;;;;0.85;0.85;;;20.20;75.20;;;;;;4951096;29;20046;-39
2024/04/07 04:56:30;;;;;;;1.33;0.82;;;20.20;75.20;;;;;;4956114;29;20115;-39
2024/04/07 04:58:59;;;;;;;1.92;1.00;;;20.20;75.20;;;;;;4958510;29;20027;-41
2024/04/07 05:01:27;;;;;;;1.20;0.80;;;20.20;75.20;;;;;;4958339;28;20031;-40
2024/04/07 05:03:53;;;;;;;1.40;0.80;;;20.20;75.20;;;;;;4962145;28;20035;-40
2024/04/07 05:06:19;;;;;;;0.85;0.80;;;20.20;75.20;;;;;;4956451;28;20064;-41
2024/04/07 05:08:46;;;;;;;0.80;0.80;;;20.20;75.20;;;;;;4949297;29;20067;-38
2024/04/07 05:11:12;;;;;;;1.02;0.77;;;20.10;75.20;;;;;;4974858;28;20047;-37
2024/04/07 05:13:38;;;;;;;0.65;0.65;;;20.20;75.30;;;;;;4963287;29;20027;-39
2024/04/07 05:16:04;;;;;;;1.83;0.73;;;20.10;75.20;;;;;;4947675;29;20535;-40
2024/04/07 05:18:31;;;;;;;0.70;0.70;;;20.10;75.30;;;;;;4959045;29;20035;-40
2024/04/07 05:21:07;;;;;;;0.82;0.80;;;20.10;75.20;;;;;;4953000;29;20471;-41
2024/04/07 05:23:35;;;;;;;1.20;0.82;;;20.10;75.20;;;;;;4962569;29;20037;-41
2024/04/07 05:26:21;;;;;;;0.70;0.68;;;20.10;75.20;;;;;;4956481;28;20019;-40
2024/04/07 05:28:47;;;;;;;0.80;0.80;;;20.10;75.30;;;;;;4926950;29;20031;-39
2024/04/07 05:31:13;;;;;;;2.05;0.80;;;20.00;75.20;;;;;;4959965;29;20062;-38
2024/04/07 05:33:43;;;;;;;0.73;0.73;;;20.00;75.20;;;;;;4952759;29;20034;-40
2024/04/07 05:36:09;;;;;;;0.60;0.60;;;20.00;75.30;;;;;;4949833;29;20032;-39
2024/04/07 05:38:36;;;;;;;0.60;0.60;;;20.00;75.30;;;;;;4959817;28;20099;-40
2024/04/07 05:41:02;;;;;;;0.95;0.70;;;20.00;75.30;;;;;;4958166;29;20120;-40
2024/04/07 05:43:28;;;;;;;0.55;0.55;;;20.00;75.30;;;;;;4962020;29;20063;-39
2024/04/07 05:45:56;;;;;;;1.35;0.70;;;20.00;75.30;;;;;;4944717;29;20028;-40
2024/04/07 05:48:23;;;;;;;1.08;0.80;;;20.00;75.30;;;;;;4948763;29;20035;-39
2024/04/07 05:50:49;;;;;;;0.60;0.60;;;19.90;75.30;;;;;;4962285;29;20463;-40
2024/04/07 05:53:15;;;;;;;0.60;0.60;;;19.90;75.30;;;;;;4957993;28;20139;-37
2024/04/07 05:55:40;;;;;;;2.50;0.80;;;20.00;75.40;;;;;;4961445;28;20035;-39
2024/04/07 05:58:06;;;;;;;1.55;0.70;;;19.90;75.30;;;;;;4943684;29;20043;-38
2024/04/07 06:00:34;;;;;;;0.70;0.70;;;19.90;75.30;;;;;;4955822;29;20388;-39
2024/04/07 06:03:03;;;;;;;0.75;0.63;;;19.90;75.30;;;;;;4959685;28;20030;-40
2024/04/07 06:05:34;;;;;;;0.63;0.63;;;19.90;75.30;;;;;;4961704;28;20051;-41
2024/04/07 06:08:00;;;;;;;0.95;0.70;;;19.90;75.40;;;;;;4953974;28;20110;-39
2024/04/07 06:10:26;;;;;;;1.27;0.82;;;19.90;75.30;;;;;;4947281;28;20063;-40
2024/04/07 06:12:52;;;;;;;0.68;0.68;;;19.90;75.40;;;;;;4984560;28;20031;-40
2024/04/07 06:15:19;;;;;;;1.15;0.80;;;19.90;75.40;;;;;;4950634;28;20043;-36
2024/04/07 06:17:48;;;;;;;0.65;0.65;;;19.80;75.30;;;;;;4965077;28;20027;-39
2024/04/07 06:20:14;;;;;;;1.25;0.60;;;19.90;75.40;;;;;;4954845;28;20372;-40
2024/04/07 06:22:40;;;;;;;1.10;0.80;;;19.80;75.40;;;;;;4959948;28;20027;-41
2024/04/07 06:25:06;;;;;;;0.75;0.68;;;19.80;75.40;;;;;;4954724;28;20114;-39
2024/04/07 06:27:32;;;;;;;0.70;0.70;;;19.90;76.10;;;;;;4958698;28;20042;-40
2024/04/07 06:29:58;;;;;;;0.60;0.60;;;19.80;75.50;;;;;;4960068;28;20130;-40
2024/04/07 06:32:28;;;;;;;0.70;0.60;;;19.80;75.50;;;;;;4954306;28;20099;-40
2024/04/07 06:34:54;;;;;;;0.77;0.70;;;19.80;75.50;;;;;;4957341;29;20027;-39
2024/04/07 06:37:20;;;;;;;0.70;0.70;;;19.80;75.50;;;;;;4943279;28;20031;-39
2024/04/07 06:39:46;;;;;;;0.70;0.70;;;19.80;75.50;;;;;;4958346;28;20395;-39
2024/04/07 06:42:13;;;;;;;1.00;0.75;;;19.80;75.60;;;;;;4960692;29;20259;-39
2024/04/07 06:44:39;;;;;;;0.80;0.80;;;19.80;75.60;;;;;;4948570;29;20032;-39
2024/04/07 06:47:06;;;;;;;1.83;0.90;;;19.80;75.60;;;;;;4957726;29;20038;-39
2024/04/07 06:49:32;;;;;;;0.75;0.70;;;19.70;75.60;;;;;;4955673;28;20047;-40
2024/04/07 06:51:58;;;;;;;0.75;0.75;;;19.70;75.60;;;;;;4960778;29;20035;-39
2024/04/07 06:54:24;;;;;;;0.70;0.70;;;19.70;75.60;;;;;;4960237;29;20489;-41
2024/04/07 06:56:49;;;;;;;1.23;0.80;;;19.70;75.60;;;;;;4955317;28;20024;-40
2024/04/07 06:59:15;;;;;;;0.70;0.70;;;19.70;75.70;;;;;;4957931;29;20035;-40
2024/04/07 07:01:41;;;;;;;1.55;0.90;;;19.70;75.60;;;;;;4948800;28;20027;-39
2024/04/07 07:04:07;;;;;;;0.60;0.60;;;19.70;75.60;;;;;;4961889;28;20039;-39
2024/04/07 07:06:32;;;;;;;0.80;0.80;;;19.70;75.60;;;;;;4957389;28;20024;-40
2024/04/07 07:08:58;;;;;;;1.15;0.70;;;19.70;75.70;;;;;;4940585;29;20046;-40
2024/04/07 07:11:24;;;;;;;0.70;0.70;;;19.70;75.70;;;;;;4955611;28;20031;-40
2024/04/07 07:13:53;;;;;;;0.95;0.85;;;19.70;75.70;;;;;;4957278;29;20020;-41
2024/04/07 07:16:19;;;;;;;2.03;0.80;;;19.70;75.70;;;;;;4970558;28;20024;-41
2024/04/07 07:18:45;;;;;;;0.68;0.68;;;19.70;75.80;;;;;;4959054;29;20027;-39
2024/04/07 07:21:11;;;;;;;0.75;0.60;;;19.70;75.80;;;;;;4953104;28;20502;-38
2024/04/07 07:23:38;;;;;;;1.42;0.85;;;19.60;75.70;;;;;;4947889;28;20086;-38
2024/04/07 07:26:04;;;;;;;0.60;0.60;;;19.60;75.80;;;;;;4957316;28;20051;-42
2024/04/07 07:28:30;;;;;;;0.60;0.60;;;19.60;75.80;;;;;;4955944;28;20185;-39
2024/04/07 07:30:56;;;;;;;0.70;0.70;;;19.60;75.80;;;;;;4956562;28;20043;-40
2024/04/07 07:33:22;;;;;;;1.10;0.70;;;19.60;75.80;;;;;;4952930;28;20038;-39
2024/04/07 07:35:50;;;;;;;2.22;0.90;;;19.60;75.70;;;;;;4941992;29;20035;-39
2024/04/07 07:38:17;;;;;;;1.95;0.80;;;19.60;75.70;;;;;;4954964;28;20188;-40
2024/04/07 07:40:42;;;;;;;1.63;0.85;;;19.60;76.40;;;;;;4951763;28;20078;-39
2024/04/07 07:43:08;;;;;;;1.70;0.80;;;19.60;75.80;;;;;;4938321;29;20015;-39
2024/04/07 07:45:34;;;;;;;0.77;0.77;;;19.60;75.80;;;;;;4956615;28;20023;-41
2024/04/07 07:48:01;;;;;;;2.03;0.90;;;19.60;75.80;;;;;;4958523;29;20562;-38
2024/04/07 07:50:28;;;;;;;0.80;0.80;;;19.50;75.80;;;;;;4957497;28;20112;-40
2024/04/07 07:52:53;;;;;;;0.70;0.70;;;19.50;75.80;;;;;;4958105;28;20043;-41
2024/04/07 07:55:19;;;;;;;0.65;0.65;;;19.60;75.90;;;;;;4956209;28;20446;-41
2024/04/07 07:57:45;;;;;;;0.70;0.70;;;19.50;75.90;;;;;;4958158;28;20047;-39
2024/04/07 08:00:11;;;;;;;2.28;0.80;;;19.50;76.00;;;;;;4960330;28;20110;-39
2024/04/07 08:02:39;;;;;;;2.33;0.85;;;19.50;76.00;;;;;;4953908;28;20122;-41
2024/04/07 08:05:05;;;;;;;0.60;0.60;;;19.50;76.00;;;;;;4957783;28;20099;-38
2024/04/07 08:07:32;;;;;;;0.85;0.77;;;19.50;75.90;;;;;;4953460;28;20077;-40
2024/04/07 08:09:59;;;;;;;0.70;0.70;;;19.50;76.00;;;;;;4966232;28;20042;-40
2024/04/07 08:12:25;;;;;;;0.82;0.80;;;19.50;76.00;;;;;;4958934;28;20058;-40
2024/04/07 08:14:51;;;;;;;1.00;0.70;;;19.50;76.00;;;;;;4949997;28;20031;-40
2024/04/07 08:17:16;;;;;;;1.98;0.80;;;19.50;76.00;;;;;;4954399;28;20235;-40
2024/04/07 08:19:42;;;;;;;0.70;0.70;;;19.50;75.90;;;;;;4944418;28;20053;-38
2024/04/07 08:22:08;;;;;;;1.85;1.17;;;19.50;76.00;;;;;;4960078;28;20099;-40
2024/04/07 08:24:34;;;;;;;1.42;0.90;;;19.50;75.90;;;;;;4959886;29;20622;-40
2024/04/07 08:26:59;;;;;;;1.60;0.82;;;19.50;76.00;;;;;;4957832;29;20505;-40
2024/04/07 08:29:25;;;;;;;1.23;0.80;;;19.50;76.00;;;;;;4950883;28;20560;-39
2024/04/07 08:31:51;;;;;;;0.80;0.80;;;19.50;76.00;;;;;;4956021;28;20051;-40
2024/04/07 08:34:16;;;;;;;1.20;0.90;;;19.50;76.00;;;;;;4958684;28;20039;-40
2024/04/07 08:36:42;;;;;;;0.70;0.70;;;19.50;76.00;;;;;;4949606;28;20039;-39
2024/04/07 08:39:08;;;;;;;1.60;0.90;;;19.50;76.00;;;;;;4946517;28;20487;-39
2024/04/07 08:41:34;;;;;;;1.30;1.00;;;19.50;75.90;;;;;;4960339;28;20031;-40
2024/04/07 08:44:01;;;;;;;1.27;0.90;;;19.50;75.90;;;;;;4956558;28;20043;-39
2024/04/07 08:46:27;;;;;;;1.45;0.82;;;19.60;76.00;;;;;;4955876;28;20031;-37
2024/04/07 08:48:55;;;;;;;1.15;0.95;;;19.60;76.00;;;;;;4964581;29;20081;-37
2024/04/07 08:51:21;;;;;;;1.50;1.00;;;19.60;75.90;;;;;;4960826;28;20475;-39
2024/04/07 08:53:47;;;;;;;1.65;1.02;;;19.60;76.00;;;;;;4952665;29;20043;-39
2024/04/07 08:56:14;;;;;;;1.10;1.00;;;19.60;75.80;;;;;;4948024;29;20108;-40
2024/04/07 08:58:40;;;;;;;1.25;1.00;;;19.70;75.90;;;;;;4955903;28;20054;-40
2024/04/07 09:01:11;;;;;;;2.00;0.90;;;19.70;75.80;;;;;;4945354;29;20024;-39
2024/04/07 09:03:38;;;;;;;2.00;1.10;;;19.80;75.80;;;;;;4958688;29;20023;-40
2024/04/07 09:06:04;;;;;;;2.33;1.15;;;19.80;75.60;;;;;;4948072;28;20523;-40
2024/04/07 09:08:30;;;;;;;1.77;1.10;;;19.80;75.60;;;;;;4950974;29;20027;-39
2024/04/07 09:10:56;;;;;;;1.50;1.00;;;19.90;75.60;;;;;;4956075;28;20023;-39
2024/04/07 09:13:22;;;;;;;1.35;0.85;;;19.90;75.60;;;;;;4959989;28;20030;-40
2024/04/07 09:15:49;;;;;;;2.53;1.23;;;19.90;75.60;;;;;;4955338;28;20613;-37
2024/04/07 09:18:16;;;;;;;1.45;0.90;;;19.90;75.60;;;;;;4959134;28;20027;-40
2024/04/07 09:20:44;;;;;;;2.47;1.20;;;20.00;75.60;;;;;;4934058;29;20043;-39
2024/04/07 09:23:09;;;;;;;0.82;0.80;;;20.00;75.60;;;;;;4954322;28;20075;-40
2024/04/07 09:25:35;;;;;;;1.42;1.10;;;20.10;75.60;;;;;;4960038;29;20023;-40
2024/04/07 09:28:04;;;;;;;0.68;0.68;;;20.10;75.60;;;;;;4960295;29;20031;-41
2024/04/07 09:30:30;;;;;;;1.92;0.90;;;20.20;75.60;;;;;;4959883;28;20031;-40
2024/04/07 09:32:57;;;;;;;1.63;1.13;;;20.20;75.50;;;;;;4955626;28;20026;-40
2024/04/07 09:35:23;;;;;;;1.65;0.95;;;20.30;75.50;;;;;;4957962;29;20094;-40
2024/04/07 09:37:49;;;;;;;2.65;1.48;;;20.30;75.40;;;;;;4957346;28;20035;-40
2024/04/07 09:40:14;;;;;;;1.38;0.98;;;20.30;75.40;;;;;;4955057;28;20534;-38
2024/04/07 09:42:40;;;;;;;1.83;1.08;;;20.40;75.20;;;;;;4958200;28;20032;-41
2024/04/07 09:45:09;;;;;;;4.45;1.13;;;20.50;74.40;;;;;;4954165;29;20027;-38
2024/04/07 09:47:43;;;;;;;2.40;1.13;;;20.50;73.60;;;;;;4959348;29;20095;-40
2024/04/07 09:50:54;;;;;;;1.67;0.90;;;20.60;73.00;;;;;;4954994;29;20303;-39
2024/04/07 09:53:22;;;;;;;2.58;1.15;;;20.60;72.60;;;;;;4945367;29;20090;-38
2024/04/07 09:55:50;;;;;;;1.98;1.08;;;20.60;72.40;;;;;;4957784;29;20034;-39
2024/04/07 09:58:17;;;;;;;2.08;1.30;;;20.70;72.20;;;;;;4952670;28;20545;-39
2024/04/07 10:00:43;;;;;;;1.70;0.90;;;20.70;71.50;;;;;;4950209;29;20055;-39
2024/04/07 10:03:10;;;;;;;1.90;1.00;;;20.70;71.10;;;;;;4947668;29;20051;-40
2024/04/07 10:05:37;;;;;;;2.53;1.00;;;20.80;70.90;;;;;;4936790;28;20035;-40
2024/04/07 10:08:04;;;;;;;2.33;1.10;;;20.80;70.50;;;;;;4961093;28;20045;-40
2024/04/07 10:10:30;;;;;;;2.58;1.10;;;20.80;70.20;;;;;;4957695;29;20039;-39
2024/04/07 10:13:09;;;;;;;1.25;1.05;;;20.90;70.20;;;;;;4959520;28;20039;-40
2024/04/07 10:15:37;;;;;;;2.10;1.10;;;20.90;69.70;;;;;;4958560;29;20028;-37
2024/04/07 10:18:16;;;;;;;1.70;1.00;;;20.90;69.50;;;;;;4944310;29;20089;-39
2024/04/07 10:20:42;;;;;;;1.40;1.08;;;21.00;69.20;;;;;;4960061;28;20590;-39
2024/04/07 10:23:08;;;;;;;2.45;1.30;;;21.00;69.20;;;;;;4957527;28;20095;-37
2024/04/07 10:25:34;;;;;;;2.22;1.15;;;21.00;69.00;;;;;;4959953;28;20059;-40
2024/04/07 10:28:00;;;;;;;1.50;1.15;;;21.00;68.90;;;;;;4962057;29;20127;-40
2024/04/07 10:30:26;;;;;;;2.38;1.10;;;21.10;68.70;;;;;;4960044;28;20036;-40
2024/04/07 10:32:52;;;;;;;1.35;0.90;;;21.10;68.60;;;;;;4951308;29;20023;-38
2024/04/07 10:35:22;;;;;;;1.13;0.88;;;21.10;68.30;;;;;;4962741;28;20023;-41
2024/04/07 10:37:50;;;;;;;2.47;1.10;;;21.20;68.30;;;;;;4958985;28;20024;-37
2024/04/07 10:40:18;;;;;;;1.75;1.08;;;21.20;68.00;;;;;;4963350;29;20094;-39
2024/04/07 10:42:44;;;;;;;1.40;0.82;;;21.30;68.00;;;;;;4958814;28;20087;-37
2024/04/07 10:45:11;;;;;;;1.90;0.85;;;21.30;68.00;;;;;;4959740;29;20054;-39
2024/04/07 10:47:37;;;;;;;2.03;1.10;;;21.30;68.40;;;;;;4959031;28;20066;-38
2024/04/07 10:50:08;;;;;;;1.50;0.85;;;21.40;67.60;;;;;;4957139;29;20020;-40
2024/04/07 10:52:33;;;;;;;1.52;0.95;;;21.50;67.50;;;;;;4956456;29;20050;-41
2024/04/07 10:55:00;;;;;;;2.67;1.30;;;21.50;67.40;;;;;;4961611;28;20046;-41
2024/04/07 10:57:26;;;;;;;2.25;0.80;;;21.60;67.00;;;;;;4960462;28;20357;-40
2024/04/07 10:59:52;;;;;;;1.75;1.00;;;21.70;66.90;;;;;;4954919;28;20047;-40
2024/04/07 11:02:18;;;;;;;1.98;1.00;;;21.70;66.80;;;;;;4953799;28;20039;-39
2024/04/07 11:04:44;;;;;;;1.95;0.95;;;21.80;66.80;;;;;;4957674;28;20031;-39
2024/04/07 11:07:12;;;;;;;1.77;0.90;;;21.80;66.70;;;;;;4946422;29;20031;-36
2024/04/07 11:09:39;;;;;;;1.58;0.90;;;21.90;66.50;;;;;;4956016;28;20468;-38
2024/04/07 11:12:05;;;;;;;2.17;0.80;;;21.90;66.30;;;;;;4959051;29;20019;-31
2024/04/07 11:14:32;;;;;;;3.72;1.10;;;22.00;65.90;;;;;;4958326;28;20043;-34
2024/04/07 11:17:04;;;;;;;3.28;1.25;;;22.00;65.70;;;;;;4956594;28;20055;-37
2024/04/07 11:19:32;;;;;;;3.20;0.90;;;22.10;65.50;;;;;;4957982;29;20031;-36
2024/04/07 11:21:58;;;;;;;3.40;1.05;;;22.10;65.60;;;;;;4962644;29;20031;-35
2024/04/07 11:24:24;;;;;;;1.23;1.08;;;22.20;65.70;;;;;;4954649;29;20046;-35
2024/04/07 11:26:51;;;;;;;1.58;0.93;;;22.20;65.30;;;;;;4962481;28;20043;-37
2024/04/07 11:29:17;;;;;;;2.67;1.08;;;22.30;65.00;;;;;;4955870;29;20024;-37
2024/04/07 11:31:52;;;;;;;1.20;0.70;;;22.40;64.90;;;;;;4952316;29;20429;-37
2024/04/07 11:34:19;;;;;;;1.88;1.00;;;22.50;64.50;;;;;;4947539;29;20103;-36
2024/04/07 11:36:47;;;;;;;0.90;0.77;;;22.50;64.50;;;;;;4959846;29;20579;-34
2024/04/07 11:39:14;;;;;;;2.28;1.10;;;22.60;64.50;;;;;;4954364;28;20395;-36
2024/04/07 11:41:39;;;;;;;1.33;0.90;;;22.60;64.20;;;;;;4950190;28;20043;-38
2024/04/07 11:44:05;;;;;;;2.97;1.00;;;22.70;63.70;;;;;;4958782;28;20045;-37
2024/04/07 11:46:31;;;;;;;1.73;0.85;;;22.70;63.60;;;;;;4950597;29;20030;-34
2024/04/07 11:48:57;;;;;;;1.98;0.82;;;22.70;63.40;;;;;;4956886;28;20047;-35
2024/04/07 11:51:22;;;;;;;1.60;0.95;;;22.80;63.50;;;;;;4961764;29;20027;-34
2024/04/07 11:53:48;;;;;;;1.00;0.90;;;22.80;63.70;;;;;;4956561;29;20027;-35
2024/04/07 11:56:14;;;;;;;0.80;0.70;;;22.90;64.10;;;;;;4958102;29;20015;-36
2024/04/07 11:58:40;;;;;;;1.55;0.93;;;22.90;64.50;;;;;;4958269;29;20035;-35
2024/04/07 12:01:06;;;;;;;1.65;0.70;;;23.00;65.00;;;;;;4958242;28;20035;-35
2024/04/07 12:03:32;;;;;;;1.40;0.75;;;23.00;65.40;;;;;;4951917;28;20042;-35
2024/04/07 12:05:57;;;;;;;1.27;0.70;;;23.10;65.90;;;;;;4953093;28;20111;-36
2024/04/07 12:08:23;;;;;;;1.55;1.00;;;23.10;66.10;;;;;;4958069;28;20055;-38
2024/04/07 12:10:49;;;;;;;1.48;0.90;;;23.10;66.50;;;;;;4921618;29;20027;-37
2024/04/07 12:13:15;;;;;;;1.08;0.80;;;23.20;66.90;;;;;;4975213;28;20027;-33
2024/04/07 12:15:41;;;;;;;0.85;0.82;;;23.20;67.10;;;;;;4952798;28;20031;-37
2024/04/07 12:18:07;;;;;;;1.60;0.80;;;23.30;67.60;;;;;;4948455;29;20063;-35
2024/04/07 12:20:32;;;;;;;1.33;0.98;;;23.30;67.90;;;;;;4960577;28;20035;-34
2024/04/07 12:22:58;;;;;;;1.23;0.82;;;23.40;68.10;;;;;;4958520;29;20566;-33
2024/04/07 12:25:25;;;;;;;1.05;0.80;;;23.40;68.30;;;;;;4956083;28;20088;-35
2024/04/07 12:27:51;;;;;;;2.10;0.77;;;23.40;68.50;;;;;;4958250;29;20046;-39
2024/04/07 12:30:17;;;;;;;0.80;0.70;;;23.50;68.80;;;;;;4946514;29;20035;-36
2024/04/07 12:32:43;;;;;;;2.28;1.00;;;23.60;69.10;;;;;;4959397;28;20082;-33
2024/04/07 12:35:09;;;;;;;2.80;0.75;;;23.60;69.30;;;;;;4949422;28;20027;-34
2024/04/07 12:37:34;;;;;;;0.77;0.70;;;23.70;69.40;;;;;;4960309;28;20083;-36
2024/04/07 12:40:00;;;;;;;0.80;0.60;;;23.70;69.60;;;;;;4953631;28;20886;-36
2024/04/07 12:42:26;;;;;;;1.30;0.70;;;23.70;69.70;;;;;;4948364;28;20034;-36
2024/04/07 12:44:52;;;;;;;1.50;0.88;;;23.70;69.90;;;;;;4960096;28;20019;-37
2024/04/07 12:47:22;;;;;;;2.05;0.80;;;23.80;70.10;;;;;;4956631;28;20043;-39
2024/04/07 12:49:48;;;;;;;0.98;0.70;;;23.80;70.10;;;;;;4952492;28;20082;-37
2024/04/07 12:52:14;;;;;;;1.42;0.90;;;23.80;70.20;;;;;;4958025;28;20032;-33
2024/04/07 12:54:40;;;;;;;1.50;0.80;;;23.90;70.20;;;;;;4916763;29;20035;-35